sensor_id;sensor_type;location;lat;lon;timestamp;P1;durP1;ratioP1;P2;durP2;ratioP2
6983;SDS011;3532;51.118;7.210;2024-02-21T00:00:24;15.63;;;7.43;;
6983;SDS011;3532;51.118;7.210;2024-02-21T00:02:50;16.77;;;7.47;;
6983;SDS011;3532;51.118;7.210;2024-02-21T00:05:15;9.97;;;6.73;;
6983;SDS011;3532;51.118;7.210;2024-02-21T00:07:40;10.23;;;6.37;;
6983;SDS011;3532;51.118;7.210;2024-02-21T00:10:06;11.93;;;6.67;;
6983;SDS011;3532;51.118;7.210;2024-02-21T00:12:32;17.43;;;6.57;;
6983;SDS011;3532;51.118;7.210;2024-02-21T00:14:57;13.60;;;7.43;;
6983;SDS011;3532;51.118;7.210;2024-02-21T00:17:23;15.23;;;6.80;;
6983;SDS011;3532;51.118;7.210;2024-02-21T00:19:48;17.03;;;7.03;;
6983;SDS011;3532;51.118;7.210;2024-02-21T00:22:13;15.13;;;6.97;;
6983;SDS011;3532;51.118;7.210;2024-02-21T00:24:39;11.40;;;7.27;;
6983;SDS011;3532;51.118;7.210;2024-02-21T00:27:04;15.63;;;7.47;;
6983;SDS011;3532;51.118;7.210;2024-02-21T00:29:30;10.73;;;6.33;;
6983;SDS011;3532;51.118;7.210;2024-02-21T00:31:55;11.63;;;6.30;;
6983;SDS011;3532;51.118;7.210;2024-02-21T00:34:20;13.93;;;6.97;;
6983;SDS011;3532;51.118;7.210;2024-02-21T00:36:46;11.00;;;6.13;;
6983;SDS011;3532;51.118;7.210;2024-02-21T00:39:11;12.83;;;7.33;;
6983;SDS011;3532;51.118;7.210;2024-02-21T00:41:36;12.53;;;7.47;;
6983;SDS011;3532;51.118;7.210;2024-02-21T00:44:02;12.00;;;6.47;;
6983;SDS011;3532;51.118;7.210;2024-02-21T00:46:27;11.67;;;6.77;;
6983;SDS011;3532;51.118;7.210;2024-02-21T00:48:52;10.57;;;7.30;;
6983;SDS011;3532;51.118;7.210;2024-02-21T00:51:17;13.03;;;6.83;;
6983;SDS011;3532;51.118;7.210;2024-02-21T00:53:43;15.27;;;7.27;;
6983;SDS011;3532;51.118;7.210;2024-02-21T00:56:08;12.17;;;5.97;;
6983;SDS011;3532;51.118;7.210;2024-02-21T00:58:34;11.87;;;6.83;;
6983;SDS011;3532;51.118;7.210;2024-02-21T01:01:00;15.20;;;7.67;;
6983;SDS011;3532;51.118;7.210;2024-02-21T01:03:26;11.43;;;7.17;;
6983;SDS011;3532;51.118;7.210;2024-02-21T01:05:51;11.23;;;7.00;;
6983;SDS011;3532;51.118;7.210;2024-02-21T01:08:16;15.97;;;6.77;;
6983;SDS011;3532;51.118;7.210;2024-02-21T01:10:42;15.83;;;7.80;;
6983;SDS011;3532;51.118;7.210;2024-02-21T01:13:08;12.63;;;6.50;;
6983;SDS011;3532;51.118;7.210;2024-02-21T01:15:33;13.57;;;6.90;;
6983;SDS011;3532;51.118;7.210;2024-02-21T01:17:58;12.67;;;7.23;;
6983;SDS011;3532;51.118;7.210;2024-02-21T01:20:24;11.37;;;7.67;;
6983;SDS011;3532;51.118;7.210;2024-02-21T01:22:49;14.33;;;7.90;;
6983;SDS011;3532;51.118;7.210;2024-02-21T01:25:14;11.73;;;6.97;;
6983;SDS011;3532;51.118;7.210;2024-02-21T01:27:40;13.90;;;7.13;;
6983;SDS011;3532;51.118;7.210;2024-02-21T01:30:05;17.03;;;7.67;;
6983;SDS011;3532;51.118;7.210;2024-02-21T01:32:31;16.10;;;8.87;;
6983;SDS011;3532;51.118;7.210;2024-02-21T01:34:56;16.87;;;8.20;;
6983;SDS011;3532;51.118;7.210;2024-02-21T01:37:22;11.33;;;7.17;;
6983;SDS011;3532;51.118;7.210;2024-02-21T01:39:47;16.10;;;7.43;;
6983;SDS011;3532;51.118;7.210;2024-02-21T01:42:14;15.37;;;7.60;;
6983;SDS011;3532;51.118;7.210;2024-02-21T01:44:39;12.17;;;7.03;;
6983;SDS011;3532;51.118;7.210;2024-02-21T01:47:05;15.97;;;7.27;;
6983;SDS011;3532;51.118;7.210;2024-02-21T01:49:30;16.83;;;8.57;;
6983;SDS011;3532;51.118;7.210;2024-02-21T01:51:55;14.27;;;7.63;;
6983;SDS011;3532;51.118;7.210;2024-02-21T01:54:21;19.77;;;7.73;;
6983;SDS011;3532;51.118;7.210;2024-02-21T01:56:47;15.13;;;7.50;;
6983;SDS011;3532;51.118;7.210;2024-02-21T01:59:13;16.93;;;7.00;;
6983;SDS011;3532;51.118;7.210;2024-02-21T02:01:38;15.33;;;7.83;;
6983;SDS011;3532;51.118;7.210;2024-02-21T02:04:04;13.03;;;7.50;;
6983;SDS011;3532;51.118;7.210;2024-02-21T02:06:30;17.37;;;8.80;;
6983;SDS011;3532;51.118;7.210;2024-02-21T02:08:56;16.50;;;8.03;;
6983;SDS011;3532;51.118;7.210;2024-02-21T02:11:21;19.60;;;8.23;;
6983;SDS011;3532;51.118;7.210;2024-02-21T02:13:47;16.73;;;7.33;;
6983;SDS011;3532;51.118;7.210;2024-02-21T02:16:12;16.00;;;8.17;;
6983;SDS011;3532;51.118;7.210;2024-02-21T02:18:37;20.73;;;8.63;;
6983;SDS011;3532;51.118;7.210;2024-02-21T02:21:08;19.23;;;8.83;;
6983;SDS011;3532;51.118;7.210;2024-02-21T02:23:48;14.70;;;7.33;;
6983;SDS011;3532;51.118;7.210;2024-02-21T02:26:13;19.20;;;8.57;;
6983;SDS011;3532;51.118;7.210;2024-02-21T02:28:38;18.17;;;7.93;;
6983;SDS011;3532;51.118;7.210;2024-02-21T02:31:04;16.90;;;8.10;;
6983;SDS011;3532;51.118;7.210;2024-02-21T02:33:30;14.17;;;8.57;;
6983;SDS011;3532;51.118;7.210;2024-02-21T02:35:55;11.97;;;7.07;;
6983;SDS011;3532;51.118;7.210;2024-02-21T02:38:21;14.47;;;7.80;;
6983;SDS011;3532;51.118;7.210;2024-02-21T02:40:46;16.17;;;7.57;;
6983;SDS011;3532;51.118;7.210;2024-02-21T02:43:11;19.50;;;8.50;;
6983;SDS011;3532;51.118;7.210;2024-02-21T02:45:37;17.13;;;8.27;;
6983;SDS011;3532;51.118;7.210;2024-02-21T02:48:02;12.40;;;8.47;;
6983;SDS011;3532;51.118;7.210;2024-02-21T02:50:28;15.27;;;7.13;;
6983;SDS011;3532;51.118;7.210;2024-02-21T02:52:53;14.00;;;7.60;;
6983;SDS011;3532;51.118;7.210;2024-02-21T02:55:19;12.53;;;7.73;;
6983;SDS011;3532;51.118;7.210;2024-02-21T02:57:44;15.33;;;7.33;;
6983;SDS011;3532;51.118;7.210;2024-02-21T03:00:10;12.13;;;7.40;;
6983;SDS011;3532;51.118;7.210;2024-02-21T03:02:37;14.40;;;7.17;;
6983;SDS011;3532;51.118;7.210;2024-02-21T03:05:11;15.93;;;8.97;;
6983;SDS011;3532;51.118;7.210;2024-02-21T03:07:40;13.93;;;7.63;;
6983;SDS011;3532;51.118;7.210;2024-02-21T03:10:06;14.47;;;7.93;;
6983;SDS011;3532;51.118;7.210;2024-02-21T03:12:31;18.53;;;8.50;;
6983;SDS011;3532;51.118;7.210;2024-02-21T03:14:57;12.37;;;7.17;;
6983;SDS011;3532;51.118;7.210;2024-02-21T03:17:22;13.00;;;7.93;;
6983;SDS011;3532;51.118;7.210;2024-02-21T03:19:48;9.03;;;8.13;;
6983;SDS011;3532;51.118;7.210;2024-02-21T03:22:14;12.03;;;7.90;;
6983;SDS011;3532;51.118;7.210;2024-02-21T03:24:40;17.33;;;8.47;;
6983;SDS011;3532;51.118;7.210;2024-02-21T03:27:06;17.83;;;7.63;;
6983;SDS011;3532;51.118;7.210;2024-02-21T03:29:31;15.73;;;8.93;;
6983;SDS011;3532;51.118;7.210;2024-02-21T03:31:56;12.67;;;7.03;;
6983;SDS011;3532;51.118;7.210;2024-02-21T03:34:22;12.83;;;7.73;;
6983;SDS011;3532;51.118;7.210;2024-02-21T03:36:47;12.30;;;7.90;;
6983;SDS011;3532;51.118;7.210;2024-02-21T03:39:12;13.50;;;7.47;;
6983;SDS011;3532;51.118;7.210;2024-02-21T03:41:38;16.30;;;7.50;;
6983;SDS011;3532;51.118;7.210;2024-02-21T03:44:03;13.03;;;8.37;;
6983;SDS011;3532;51.118;7.210;2024-02-21T03:46:29;13.20;;;8.17;;
6983;SDS011;3532;51.118;7.210;2024-02-21T03:48:55;12.80;;;7.73;;
6983;SDS011;3532;51.118;7.210;2024-02-21T03:51:21;14.63;;;7.70;;
6983;SDS011;3532;51.118;7.210;2024-02-21T03:53:46;12.30;;;8.13;;
6983;SDS011;3532;51.118;7.210;2024-02-21T03:56:11;18.67;;;7.47;;
6983;SDS011;3532;51.118;7.210;2024-02-21T03:58:37;14.60;;;7.77;;
6983;SDS011;3532;51.118;7.210;2024-02-21T04:01:02;16.63;;;8.37;;
6983;SDS011;3532;51.118;7.210;2024-02-21T04:03:28;13.90;;;7.77;;
6983;SDS011;3532;51.118;7.210;2024-02-21T04:05:54;16.07;;;7.83;;
6983;SDS011;3532;51.118;7.210;2024-02-21T04:08:19;16.40;;;6.97;;
6983;SDS011;3532;51.118;7.210;2024-02-21T04:10:45;14.27;;;8.70;;
6983;SDS011;3532;51.118;7.210;2024-02-21T04:13:10;15.43;;;7.53;;
6983;SDS011;3532;51.118;7.210;2024-02-21T04:15:35;12.57;;;7.20;;
6983;SDS011;3532;51.118;7.210;2024-02-21T04:18:01;15.97;;;7.43;;
6983;SDS011;3532;51.118;7.210;2024-02-21T04:20:28;9.80;;;7.00;;
6983;SDS011;3532;51.118;7.210;2024-02-21T04:22:53;12.60;;;8.13;;
6983;SDS011;3532;51.118;7.210;2024-02-21T04:25:18;13.20;;;7.47;;
6983;SDS011;3532;51.118;7.210;2024-02-21T04:27:44;14.90;;;8.57;;
6983;SDS011;3532;51.118;7.210;2024-02-21T04:30:10;13.47;;;8.20;;
6983;SDS011;3532;51.118;7.210;2024-02-21T04:32:35;11.47;;;7.03;;
6983;SDS011;3532;51.118;7.210;2024-02-21T04:35:00;14.93;;;6.93;;
6983;SDS011;3532;51.118;7.210;2024-02-21T04:37:26;16.00;;;7.57;;
6983;SDS011;3532;51.118;7.210;2024-02-21T04:39:51;11.00;;;7.20;;
6983;SDS011;3532;51.118;7.210;2024-02-21T04:42:16;17.67;;;7.83;;
6983;SDS011;3532;51.118;7.210;2024-02-21T04:44:42;14.30;;;6.73;;
6983;SDS011;3532;51.118;7.210;2024-02-21T04:47:07;16.00;;;7.33;;
6983;SDS011;3532;51.118;7.210;2024-02-21T04:49:33;13.20;;;6.43;;
6983;SDS011;3532;51.118;7.210;2024-02-21T04:51:58;18.10;;;7.17;;
6983;SDS011;3532;51.118;7.210;2024-02-21T04:54:23;13.40;;;7.53;;
6983;SDS011;3532;51.118;7.210;2024-02-21T04:56:49;13.80;;;7.07;;
6983;SDS011;3532;51.118;7.210;2024-02-21T04:59:14;13.80;;;6.47;;
6983;SDS011;3532;51.118;7.210;2024-02-21T05:01:39;10.03;;;6.30;;
6983;SDS011;3532;51.118;7.210;2024-02-21T05:04:05;11.33;;;6.03;;
6983;SDS011;3532;51.118;7.210;2024-02-21T05:06:30;16.93;;;7.10;;
6983;SDS011;3532;51.118;7.210;2024-02-21T05:08:55;17.80;;;6.87;;
6983;SDS011;3532;51.118;7.210;2024-02-21T05:11:22;10.40;;;5.77;;
6983;SDS011;3532;51.118;7.210;2024-02-21T05:13:48;14.63;;;6.70;;
6983;SDS011;3532;51.118;7.210;2024-02-21T05:16:13;19.77;;;7.07;;
6983;SDS011;3532;51.118;7.210;2024-02-21T05:18:39;11.70;;;6.87;;
6983;SDS011;3532;51.118;7.210;2024-02-21T05:21:05;9.50;;;6.43;;
6983;SDS011;3532;51.118;7.210;2024-02-21T05:23:30;11.03;;;6.43;;
6983;SDS011;3532;51.118;7.210;2024-02-21T05:25:56;10.30;;;6.13;;
6983;SDS011;3532;51.118;7.210;2024-02-21T05:28:21;12.90;;;7.03;;
6983;SDS011;3532;51.118;7.210;2024-02-21T05:30:46;10.00;;;5.73;;
6983;SDS011;3532;51.118;7.210;2024-02-21T05:33:12;9.77;;;6.43;;
6983;SDS011;3532;51.118;7.210;2024-02-21T05:35:37;13.07;;;6.70;;
6983;SDS011;3532;51.118;7.210;2024-02-21T05:38:03;14.47;;;6.43;;
6983;SDS011;3532;51.118;7.210;2024-02-21T05:40:36;13.87;;;5.97;;
6983;SDS011;3532;51.118;7.210;2024-02-21T05:43:01;13.30;;;7.27;;
6983;SDS011;3532;51.118;7.210;2024-02-21T05:45:27;13.80;;;6.93;;
6983;SDS011;3532;51.118;7.210;2024-02-21T05:47:52;12.47;;;6.47;;
6983;SDS011;3532;51.118;7.210;2024-02-21T05:50:17;14.63;;;7.40;;
6983;SDS011;3532;51.118;7.210;2024-02-21T05:52:42;12.37;;;6.73;;
6983;SDS011;3532;51.118;7.210;2024-02-21T05:55:08;12.13;;;6.23;;
6983;SDS011;3532;51.118;7.210;2024-02-21T05:57:36;11.30;;;6.60;;
6983;SDS011;3532;51.118;7.210;2024-02-21T06:00:05;11.97;;;7.00;;
6983;SDS011;3532;51.118;7.210;2024-02-21T06:02:31;14.17;;;7.30;;
6983;SDS011;3532;51.118;7.210;2024-02-21T06:04:56;14.70;;;6.33;;
6983;SDS011;3532;51.118;7.210;2024-02-21T06:07:21;15.37;;;7.73;;
6983;SDS011;3532;51.118;7.210;2024-02-21T06:09:46;12.33;;;7.10;;
6983;SDS011;3532;51.118;7.210;2024-02-21T06:12:12;10.63;;;6.23;;
6983;SDS011;3532;51.118;7.210;2024-02-21T06:14:37;9.77;;;6.20;;
6983;SDS011;3532;51.118;7.210;2024-02-21T06:17:02;11.20;;;6.30;;
6983;SDS011;3532;51.118;7.210;2024-02-21T06:19:28;11.70;;;6.03;;
6983;SDS011;3532;51.118;7.210;2024-02-21T06:21:53;12.37;;;5.87;;
6983;SDS011;3532;51.118;7.210;2024-02-21T06:24:18;8.53;;;5.43;;
6983;SDS011;3532;51.118;7.210;2024-02-21T06:26:44;12.07;;;6.87;;
6983;SDS011;3532;51.118;7.210;2024-02-21T06:29:09;11.23;;;6.63;;
6983;SDS011;3532;51.118;7.210;2024-02-21T06:31:35;16.27;;;6.63;;
6983;SDS011;3532;51.118;7.210;2024-02-21T06:34:01;10.13;;;5.63;;
6983;SDS011;3532;51.118;7.210;2024-02-21T06:36:27;9.40;;;6.00;;
6983;SDS011;3532;51.118;7.210;2024-02-21T06:38:52;11.87;;;6.30;;
6983;SDS011;3532;51.118;7.210;2024-02-21T06:41:17;10.67;;;6.43;;
6983;SDS011;3532;51.118;7.210;2024-02-21T06:43:44;9.73;;;5.80;;
6983;SDS011;3532;51.118;7.210;2024-02-21T06:46:10;10.70;;;6.13;;
6983;SDS011;3532;51.118;7.210;2024-02-21T06:48:36;14.57;;;7.20;;
6983;SDS011;3532;51.118;7.210;2024-02-21T06:51:01;10.93;;;6.10;;
6983;SDS011;3532;51.118;7.210;2024-02-21T06:53:28;10.90;;;5.73;;
6983;SDS011;3532;51.118;7.210;2024-02-21T06:55:53;10.37;;;6.40;;
6983;SDS011;3532;51.118;7.210;2024-02-21T06:58:19;10.50;;;6.50;;
6983;SDS011;3532;51.118;7.210;2024-02-21T07:00:44;11.07;;;5.83;;
6983;SDS011;3532;51.118;7.210;2024-02-21T07:03:09;14.43;;;6.50;;
6983;SDS011;3532;51.118;7.210;2024-02-21T07:05:35;13.13;;;6.23;;
6983;SDS011;3532;51.118;7.210;2024-02-21T07:08:00;10.57;;;6.43;;
6983;SDS011;3532;51.118;7.210;2024-02-21T07:10:26;12.33;;;6.33;;
6983;SDS011;3532;51.118;7.210;2024-02-21T07:12:53;12.53;;;6.87;;
6983;SDS011;3532;51.118;7.210;2024-02-21T07:15:18;11.57;;;5.93;;
6983;SDS011;3532;51.118;7.210;2024-02-21T07:17:43;8.90;;;6.07;;
6983;SDS011;3532;51.118;7.210;2024-02-21T07:20:09;10.43;;;5.93;;
6983;SDS011;3532;51.118;7.210;2024-02-21T07:22:34;9.23;;;6.30;;
6983;SDS011;3532;51.118;7.210;2024-02-21T07:24:59;13.43;;;6.33;;
6983;SDS011;3532;51.118;7.210;2024-02-21T07:27:25;13.03;;;7.97;;
6983;SDS011;3532;51.118;7.210;2024-02-21T07:29:53;13.20;;;5.73;;
6983;SDS011;3532;51.118;7.210;2024-02-21T07:32:19;11.43;;;6.27;;
6983;SDS011;3532;51.118;7.210;2024-02-21T07:34:44;11.83;;;5.93;;
6983;SDS011;3532;51.118;7.210;2024-02-21T07:37:09;9.80;;;6.23;;
6983;SDS011;3532;51.118;7.210;2024-02-21T07:39:38;11.50;;;6.73;;
6983;SDS011;3532;51.118;7.210;2024-02-21T07:42:03;12.37;;;7.53;;
6983;SDS011;3532;51.118;7.210;2024-02-21T07:44:28;10.47;;;6.60;;
6983;SDS011;3532;51.118;7.210;2024-02-21T07:46:54;10.37;;;6.03;;
6983;SDS011;3532;51.118;7.210;2024-02-21T07:49:19;12.43;;;6.77;;
6983;SDS011;3532;51.118;7.210;2024-02-21T07:51:44;10.90;;;5.60;;
6983;SDS011;3532;51.118;7.210;2024-02-21T07:54:10;11.07;;;5.90;;
6983;SDS011;3532;51.118;7.210;2024-02-21T07:56:35;9.97;;;6.30;;
6983;SDS011;3532;51.118;7.210;2024-02-21T07:59:00;13.80;;;7.00;;
6983;SDS011;3532;51.118;7.210;2024-02-21T08:01:25;11.17;;;6.20;;
6983;SDS011;3532;51.118;7.210;2024-02-21T08:03:51;11.43;;;6.27;;
6983;SDS011;3532;51.118;7.210;2024-02-21T08:06:16;8.63;;;6.07;;
6983;SDS011;3532;51.118;7.210;2024-02-21T08:08:41;9.90;;;5.17;;
6983;SDS011;3532;51.118;7.210;2024-02-21T08:11:07;10.90;;;5.30;;
6983;SDS011;3532;51.118;7.210;2024-02-21T08:13:32;5.97;;;4.73;;
6983;SDS011;3532;51.118;7.210;2024-02-21T08:15:57;8.10;;;5.10;;
6983;SDS011;3532;51.118;7.210;2024-02-21T08:18:23;10.50;;;5.20;;
6983;SDS011;3532;51.118;7.210;2024-02-21T08:20:48;10.57;;;5.20;;
6983;SDS011;3532;51.118;7.210;2024-02-21T08:23:18;7.10;;;4.73;;
6983;SDS011;3532;51.118;7.210;2024-02-21T08:25:43;9.17;;;4.80;;
6983;SDS011;3532;51.118;7.210;2024-02-21T08:28:09;6.70;;;4.93;;
6983;SDS011;3532;51.118;7.210;2024-02-21T08:30:34;12.00;;;5.83;;
6983;SDS011;3532;51.118;7.210;2024-02-21T08:32:59;10.50;;;5.07;;
6983;SDS011;3532;51.118;7.210;2024-02-21T08:35:25;7.23;;;4.70;;
6983;SDS011;3532;51.118;7.210;2024-02-21T08:37:50;11.07;;;5.40;;
6983;SDS011;3532;51.118;7.210;2024-02-21T08:40:15;9.03;;;5.17;;
6983;SDS011;3532;51.118;7.210;2024-02-21T08:42:46;8.63;;;5.30;;
6983;SDS011;3532;51.118;7.210;2024-02-21T08:45:11;9.23;;;5.10;;
6983;SDS011;3532;51.118;7.210;2024-02-21T08:47:39;9.27;;;5.27;;
6983;SDS011;3532;51.118;7.210;2024-02-21T08:50:05;9.73;;;5.80;;
6983;SDS011;3532;51.118;7.210;2024-02-21T08:52:31;8.97;;;5.00;;
6983;SDS011;3532;51.118;7.210;2024-02-21T08:54:56;10.00;;;5.90;;
6983;SDS011;3532;51.118;7.210;2024-02-21T08:57:21;6.83;;;4.93;;
6983;SDS011;3532;51.118;7.210;2024-02-21T08:59:47;8.93;;;5.20;;
6983;SDS011;3532;51.118;7.210;2024-02-21T09:02:12;11.23;;;5.37;;
6983;SDS011;3532;51.118;7.210;2024-02-21T09:04:38;12.37;;;5.43;;
6983;SDS011;3532;51.118;7.210;2024-02-21T09:07:03;9.93;;;5.20;;
6983;SDS011;3532;51.118;7.210;2024-02-21T09:09:29;10.40;;;5.47;;
6983;SDS011;3532;51.118;7.210;2024-02-21T09:11:54;7.43;;;5.40;;
6983;SDS011;3532;51.118;7.210;2024-02-21T09:14:19;9.63;;;5.37;;
6983;SDS011;3532;51.118;7.210;2024-02-21T09:16:44;9.13;;;4.93;;
6983;SDS011;3532;51.118;7.210;2024-02-21T09:19:10;12.50;;;5.27;;
6983;SDS011;3532;51.118;7.210;2024-02-21T09:21:36;9.33;;;5.03;;
6983;SDS011;3532;51.118;7.210;2024-02-21T09:24:02;8.03;;;5.83;;
6983;SDS011;3532;51.118;7.210;2024-02-21T09:26:28;10.97;;;5.23;;
6983;SDS011;3532;51.118;7.210;2024-02-21T09:28:53;16.53;;;6.30;;
6983;SDS011;3532;51.118;7.210;2024-02-21T09:31:18;8.47;;;5.97;;
6983;SDS011;3532;51.118;7.210;2024-02-21T09:33:45;14.30;;;5.40;;
6983;SDS011;3532;51.118;7.210;2024-02-21T09:36:11;7.00;;;5.00;;
6983;SDS011;3532;51.118;7.210;2024-02-21T09:38:39;12.23;;;5.73;;
6983;SDS011;3532;51.118;7.210;2024-02-21T09:41:18;15.70;;;6.00;;
6983;SDS011;3532;51.118;7.210;2024-02-21T09:43:46;8.33;;;5.50;;
6983;SDS011;3532;51.118;7.210;2024-02-21T09:46:16;11.40;;;5.10;;
6983;SDS011;3532;51.118;7.210;2024-02-21T09:51:32;10.20;;;4.93;;
6983;SDS011;3532;51.118;7.210;2024-02-21T09:53:59;12.60;;;5.83;;
6983;SDS011;3532;51.118;7.210;2024-02-21T09:56:25;12.33;;;4.90;;
6983;SDS011;3532;51.118;7.210;2024-02-21T09:58:50;11.90;;;5.43;;
6983;SDS011;3532;51.118;7.210;2024-02-21T10:01:15;7.17;;;4.80;;
6983;SDS011;3532;51.118;7.210;2024-02-21T10:03:41;13.57;;;6.10;;
6983;SDS011;3532;51.118;7.210;2024-02-21T10:06:08;12.03;;;5.40;;
6983;SDS011;3532;51.118;7.210;2024-02-21T10:08:33;8.93;;;4.90;;
6983;SDS011;3532;51.118;7.210;2024-02-21T10:10:59;6.70;;;4.63;;
6983;SDS011;3532;51.118;7.210;2024-02-21T10:13:26;13.00;;;5.67;;
6983;SDS011;3532;51.118;7.210;2024-02-21T10:18:30;13.17;;;5.40;;
6983;SDS011;3532;51.118;7.210;2024-02-21T10:21:14;12.33;;;5.33;;
6983;SDS011;3532;51.118;7.210;2024-02-21T10:23:43;8.87;;;5.20;;
6983;SDS011;3532;51.118;7.210;2024-02-21T10:26:09;9.53;;;4.97;;
6983;SDS011;3532;51.118;7.210;2024-02-21T10:28:34;9.63;;;5.03;;
6983;SDS011;3532;51.118;7.210;2024-02-21T10:30:59;14.10;;;5.70;;
6983;SDS011;3532;51.118;7.210;2024-02-21T10:33:25;13.10;;;4.80;;
6983;SDS011;3532;51.118;7.210;2024-02-21T10:35:52;10.83;;;5.43;;
6983;SDS011;3532;51.118;7.210;2024-02-21T10:38:18;9.23;;;4.77;;
6983;SDS011;3532;51.118;7.210;2024-02-21T10:40:43;9.77;;;5.03;;
6983;SDS011;3532;51.118;7.210;2024-02-21T10:43:12;7.33;;;4.57;;
6983;SDS011;3532;51.118;7.210;2024-02-21T10:45:38;8.87;;;4.63;;
6983;SDS011;3532;51.118;7.210;2024-02-21T10:50:47;7.43;;;4.40;;
6983;SDS011;3532;51.118;7.210;2024-02-21T10:55:56;9.80;;;4.93;;
6983;SDS011;3532;51.118;7.210;2024-02-21T10:58:25;10.00;;;5.00;;
6983;SDS011;3532;51.118;7.210;2024-02-21T11:00:50;10.83;;;5.03;;
6983;SDS011;3532;51.118;7.210;2024-02-21T11:03:16;9.37;;;5.30;;
6983;SDS011;3532;51.118;7.210;2024-02-21T11:05:42;8.43;;;4.73;;
6983;SDS011;3532;51.118;7.210;2024-02-21T11:08:10;10.23;;;4.93;;
6983;SDS011;3532;51.118;7.210;2024-02-21T11:10:36;8.33;;;4.60;;
6983;SDS011;3532;51.118;7.210;2024-02-21T11:13:06;8.67;;;4.37;;
6983;SDS011;3532;51.118;7.210;2024-02-21T11:15:34;6.90;;;4.10;;
6983;SDS011;3532;51.118;7.210;2024-02-21T11:18:00;9.17;;;5.33;;
6983;SDS011;3532;51.118;7.210;2024-02-21T11:20:32;7.30;;;4.07;;
6983;SDS011;3532;51.118;7.210;2024-02-21T11:22:59;11.67;;;4.83;;
6983;SDS011;3532;51.118;7.210;2024-02-21T11:25:24;12.10;;;5.03;;
6983;SDS011;3532;51.118;7.210;2024-02-21T11:27:50;9.57;;;4.77;;
6983;SDS011;3532;51.118;7.210;2024-02-21T11:30:27;13.10;;;5.10;;
6983;SDS011;3532;51.118;7.210;2024-02-21T11:32:59;5.53;;;3.73;;
6983;SDS011;3532;51.118;7.210;2024-02-21T11:35:31;7.33;;;3.87;;
6983;SDS011;3532;51.118;7.210;2024-02-21T11:38:07;7.87;;;4.77;;
6983;SDS011;3532;51.118;7.210;2024-02-21T11:40:34;9.17;;;4.43;;
6983;SDS011;3532;51.118;7.210;2024-02-21T11:42:59;9.03;;;4.40;;
6983;SDS011;3532;51.118;7.210;2024-02-21T11:45:25;10.27;;;4.77;;
6983;SDS011;3532;51.118;7.210;2024-02-21T11:47:51;13.10;;;5.03;;
6983;SDS011;3532;51.118;7.210;2024-02-21T11:50:16;8.87;;;4.90;;
6983;SDS011;3532;51.118;7.210;2024-02-21T11:52:42;10.23;;;5.40;;
6983;SDS011;3532;51.118;7.210;2024-02-21T11:55:07;9.33;;;4.20;;
6983;SDS011;3532;51.118;7.210;2024-02-21T11:57:33;12.43;;;4.83;;
6983;SDS011;3532;51.118;7.210;2024-02-21T12:00:09;9.17;;;5.10;;
6983;SDS011;3532;51.118;7.210;2024-02-21T12:02:37;8.43;;;4.53;;
6983;SDS011;3532;51.118;7.210;2024-02-21T12:05:02;8.50;;;4.30;;
6983;SDS011;3532;51.118;7.210;2024-02-21T12:07:30;7.83;;;4.13;;
6983;SDS011;3532;51.118;7.210;2024-02-21T12:09:58;10.27;;;4.27;;
6983;SDS011;3532;51.118;7.210;2024-02-21T12:12:24;10.70;;;4.90;;
6983;SDS011;3532;51.118;7.210;2024-02-21T12:14:54;11.27;;;4.60;;
6983;SDS011;3532;51.118;7.210;2024-02-21T12:17:23;12.90;;;4.47;;
6983;SDS011;3532;51.118;7.210;2024-02-21T12:19:48;7.33;;;4.43;;
6983;SDS011;3532;51.118;7.210;2024-02-21T12:22:18;8.80;;;4.57;;
6983;SDS011;3532;51.118;7.210;2024-02-21T12:24:43;13.93;;;4.63;;
6983;SDS011;3532;51.118;7.210;2024-02-21T12:27:12;11.77;;;4.40;;
6983;SDS011;3532;51.118;7.210;2024-02-21T12:29:37;6.70;;;4.03;;
6983;SDS011;3532;51.118;7.210;2024-02-21T12:32:03;7.27;;;4.37;;
6983;SDS011;3532;51.118;7.210;2024-02-21T12:34:29;11.70;;;5.13;;
6983;SDS011;3532;51.118;7.210;2024-02-21T12:36:57;8.57;;;3.60;;
6983;SDS011;3532;51.118;7.210;2024-02-21T12:39:23;7.87;;;4.00;;
6983;SDS011;3532;51.118;7.210;2024-02-21T12:41:48;8.03;;;3.93;;
6983;SDS011;3532;51.118;7.210;2024-02-21T12:44:13;6.50;;;4.10;;
6983;SDS011;3532;51.118;7.210;2024-02-21T12:46:39;11.00;;;4.10;;
6983;SDS011;3532;51.118;7.210;2024-02-21T12:49:07;6.87;;;3.73;;
6983;SDS011;3532;51.118;7.210;2024-02-21T12:51:33;8.37;;;3.83;;
6983;SDS011;3532;51.118;7.210;2024-02-21T12:53:58;10.67;;;4.53;;
6983;SDS011;3532;51.118;7.210;2024-02-21T12:56:24;9.67;;;4.93;;
6983;SDS011;3532;51.118;7.210;2024-02-21T12:58:52;5.50;;;3.87;;
6983;SDS011;3532;51.118;7.210;2024-02-21T13:01:17;10.87;;;4.33;;
6983;SDS011;3532;51.118;7.210;2024-02-21T13:03:42;9.80;;;4.27;;
6983;SDS011;3532;51.118;7.210;2024-02-21T13:06:07;9.40;;;4.13;;
6983;SDS011;3532;51.118;7.210;2024-02-21T13:08:35;7.03;;;4.23;;
6983;SDS011;3532;51.118;7.210;2024-02-21T13:11:01;6.83;;;4.13;;
6983;SDS011;3532;51.118;7.210;2024-02-21T13:13:26;10.10;;;4.40;;
6983;SDS011;3532;51.118;7.210;2024-02-21T13:15:52;6.13;;;3.67;;
6983;SDS011;3532;51.118;7.210;2024-02-21T13:18:17;6.70;;;3.83;;
6983;SDS011;3532;51.118;7.210;2024-02-21T13:20:42;8.23;;;4.03;;
6983;SDS011;3532;51.118;7.210;2024-02-21T13:23:08;11.93;;;4.63;;
6983;SDS011;3532;51.118;7.210;2024-02-21T13:25:33;10.30;;;4.37;;
6983;SDS011;3532;51.118;7.210;2024-02-21T13:27:58;5.37;;;3.73;;
6983;SDS011;3532;51.118;7.210;2024-02-21T13:30:24;11.17;;;3.90;;
6983;SDS011;3532;51.118;7.210;2024-02-21T13:32:50;6.20;;;4.07;;
6983;SDS011;3532;51.118;7.210;2024-02-21T13:35:16;7.13;;;3.80;;
6983;SDS011;3532;51.118;7.210;2024-02-21T13:37:41;6.23;;;3.70;;
6983;SDS011;3532;51.118;7.210;2024-02-21T13:40:07;5.53;;;3.83;;
6983;SDS011;3532;51.118;7.210;2024-02-21T13:42:39;8.33;;;3.87;;
6983;SDS011;3532;51.118;7.210;2024-02-21T13:45:05;8.23;;;4.60;;
6983;SDS011;3532;51.118;7.210;2024-02-21T13:47:31;8.77;;;4.63;;
6983;SDS011;3532;51.118;7.210;2024-02-21T13:49:57;6.93;;;4.27;;
6983;SDS011;3532;51.118;7.210;2024-02-21T13:52:22;8.57;;;4.33;;
6983;SDS011;3532;51.118;7.210;2024-02-21T13:54:51;8.67;;;3.70;;
6983;SDS011;3532;51.118;7.210;2024-02-21T13:57:16;8.43;;;4.47;;
6983;SDS011;3532;51.118;7.210;2024-02-21T13:59:41;9.90;;;4.37;;
6983;SDS011;3532;51.118;7.210;2024-02-21T14:02:07;8.70;;;4.00;;
6983;SDS011;3532;51.118;7.210;2024-02-21T14:04:33;6.70;;;4.40;;
6983;SDS011;3532;51.118;7.210;2024-02-21T14:06:59;9.80;;;4.00;;
6983;SDS011;3532;51.118;7.210;2024-02-21T14:09:24;8.63;;;4.03;;
6983;SDS011;3532;51.118;7.210;2024-02-21T14:11:49;14.83;;;4.10;;
6983;SDS011;3532;51.118;7.210;2024-02-21T14:14:15;6.20;;;4.03;;
6983;SDS011;3532;51.118;7.210;2024-02-21T14:16:40;7.03;;;3.90;;
6983;SDS011;3532;51.118;7.210;2024-02-21T14:19:06;8.83;;;3.63;;
6983;SDS011;3532;51.118;7.210;2024-02-21T14:21:33;6.23;;;3.47;;
6983;SDS011;3532;51.118;7.210;2024-02-21T14:23:58;6.97;;;3.80;;
6983;SDS011;3532;51.118;7.210;2024-02-21T14:26:26;5.63;;;3.80;;
6983;SDS011;3532;51.118;7.210;2024-02-21T14:28:52;9.13;;;3.80;;
6983;SDS011;3532;51.118;7.210;2024-02-21T14:31:17;6.67;;;3.87;;
6983;SDS011;3532;51.118;7.210;2024-02-21T14:33:42;6.53;;;3.77;;
6983;SDS011;3532;51.118;7.210;2024-02-21T14:36:08;5.80;;;3.67;;
6983;SDS011;3532;51.118;7.210;2024-02-21T14:38:33;5.80;;;3.77;;
6983;SDS011;3532;51.118;7.210;2024-02-21T14:41:00;11.23;;;3.70;;
6983;SDS011;3532;51.118;7.210;2024-02-21T14:43:25;7.93;;;4.00;;
6983;SDS011;3532;51.118;7.210;2024-02-21T14:45:51;6.63;;;3.33;;
6983;SDS011;3532;51.118;7.210;2024-02-21T14:48:16;9.63;;;4.00;;
6983;SDS011;3532;51.118;7.210;2024-02-21T14:50:42;5.83;;;3.50;;
6983;SDS011;3532;51.118;7.210;2024-02-21T14:53:07;7.77;;;3.70;;
6983;SDS011;3532;51.118;7.210;2024-02-21T14:55:36;8.80;;;3.40;;
6983;SDS011;3532;51.118;7.210;2024-02-21T14:58:05;9.90;;;4.37;;
6983;SDS011;3532;51.118;7.210;2024-02-21T15:00:30;9.67;;;3.53;;
6983;SDS011;3532;51.118;7.210;2024-02-21T15:02:56;9.57;;;3.63;;
6983;SDS011;3532;51.118;7.210;2024-02-21T15:05:22;10.40;;;4.03;;
6983;SDS011;3532;51.118;7.210;2024-02-21T15:07:48;5.17;;;3.40;;